Date,TemperatureHighF,TemperatureAvgF,TemperatureLowF,DewpointHighF,DewpointAvgF,DewpointLowF,HumidityHigh,HumidityAvg,HumidityLow,PressureMaxIn,PressureMinIn,WindSpeedMaxMPH,WindSpeedAvgMPH,GustSpeedMaxMPH,PrecipitationSumIn
2013-9-1,85.6,76.2,70.0,76.0,70.9,65.0,96,84,68,29.72,29.65,4,0,0,0.00
2013-9-2,81.7,72.3,63.7,65.0,62.4,59.0,91,72,50,29.87,29.71,8,1,0,0.00
2013-9-3,75.5,66.3,58.2,61.0,59.3,57.0,97,79,56,30.00,29.87,3,0,0,0.00
2013-9-4,82.5,69.5,56.5,63.0,59.9,55.0,95,74,47,30.07,29.96,3,0,0,0.00
2013-9-5,85.5,73.7,61.4,68.0,62.8,58.0,91,70,49,30.10,30.03,6,1,0,0.00
2013-9-6,86.6,74.4,64.0,69.0,63.4,57.0,81,69,53,30.08,29.93,5,0,0,0.00
2013-9-7,87.1,76.0,64.5,70.0,65.7,62.0,91,72,48,29.94,29.81,6,0,0,0.00
2013-9-8,87.0,77.4,70.7,72.0,70.1,67.0,95,79,59,29.87,29.79,5,0,0,0.03
2013-9-9,94.4,81.0,70.2,76.0,72.6,69.0,95,77,51,29.83,29.75,4,0,0,0.01
2013-9-10,96.0,82.2,71.2,72.0,69.5,67.0,89,68,40,29.95,29.83,5,0,0,0.00
2013-9-11,94.5,81.0,70.3,71.0,68.5,64.0,90,68,37,29.98,29.89,4,0,0,0.00
2013-9-12,83.4,72.4,62.0,71.0,62.3,50.0,97,74,36,29.97,29.86,6,1,0,0.00
2013-9-13,68.8,61.2,54.7,54.0,48.0,43.0,91,64,40,30.08,29.96,13,2,0,0.00
2013-9-14,71.9,60.2,47.9,48.0,45.9,43.0,87,62,37,30.10,29.96,5,0,0,0.00
2013-9-15,70.8,61.6,54.8,62.0,54.0,47.0,94,77,56,30.04,29.89,6,1,0,0.00
2013-9-16,70.4,61.5,53.9,57.0,53.7,48.0,95,77,53,30.22,30.04,7,2,0,0.00
2013-9-17,74.4,62.7,50.3,59.0,53.7,48.0,93,74,52,30.21,30.01,6,0,0,0.00
2013-9-18,84.1,72.1,62.2,70.0,64.2,55.0,92,77,60,30.00,29.83,6,1,0,0.00
2013-9-19,91.7,80.1,70.7,73.0,70.7,69.0,94,75,50,29.86,29.70,7,1,0,0.00
2013-9-20,73.3,66.9,55.3,69.0,63.0,52.0,98,88,70,29.80,29.72,4,0,0,0.00
2013-9-21,69.0,58.6,50.5,54.0,50.8,48.0,95,77,49,29.85,29.76,8,1,0,0.00
2013-9-22,71.2,59.4,47.3,50.0,48.4,45.0,94,70,44,29.96,29.85,6,0,0,0.00
2013-9-23,75.2,62.0,49.1,52.0,47.9,45.0,87,63,36,30.00,29.89,8,0,0,0.00
2013-9-24,76.4,64.5,53.1,59.0,53.4,48.0,84,68,48,29.91,29.77,5,0,0,0.00
2013-9-25,79.1,66.7,54.5,60.0,54.7,49.0,84,67,48,29.83,29.76,8,1,0,0.00
2013-9-26,81.8,69.7,59.1,59.0,53.3,46.0,83,58,38,29.95,29.83,5,0,0,0.00
2013-9-27,82.7,69.8,60.5,58.0,52.4,49.0,73,56,31,30.04,29.93,7,0,0,0.00
2013-9-28,82.8,70.7,57.1,66.0,58.7,53.0,90,68,45,29.96,29.82,13,2,0,0.00
2013-9-29,69.9,61.1,53.7,66.0,51.8,44.0,96,74,41,29.96,29.86,6,1,0,0.00
2013-9-30,76.6,62.3,50.5,60.0,54.1,48.0,93,76,46,29.91,29.79,7,1,0,0.00